createdAt,value
2023-02-19T00:01:12.726Z,8.14
2023-02-19T00:03:40.648Z,8.14
2023-02-19T00:06:09.972Z,8.17
2023-02-19T00:08:37.901Z,8.18
2023-02-19T00:11:06.979Z,8.17
2023-02-19T00:13:41.807Z,8.23
2023-02-19T00:16:19.509Z,8.30
2023-02-19T00:18:46.401Z,8.20
2023-02-19T00:21:13.559Z,8.29
2023-02-19T00:23:40.216Z,8.35
2023-02-19T00:26:18.233Z,8.31
2023-02-19T00:28:46.519Z,8.38
2023-02-19T00:31:24.680Z,8.35
2023-02-19T00:33:53.293Z,8.30
2023-02-19T00:36:20.302Z,8.33
2023-02-19T00:38:46.990Z,8.25
2023-02-19T00:41:14.948Z,8.29
2023-02-19T00:43:41.243Z,8.35
2023-02-19T00:46:07.588Z,8.33
2023-02-19T00:48:33.893Z,8.30
2023-02-19T00:51:00.192Z,8.41
2023-02-19T00:53:26.479Z,8.46
2023-02-19T00:55:52.779Z,8.42
2023-02-19T00:58:19.092Z,8.36
2023-02-19T01:00:45.388Z,8.37
2023-02-19T01:03:11.698Z,8.26
2023-02-19T01:05:38.011Z,8.40
2023-02-19T01:08:04.517Z,8.50
2023-02-19T01:10:30.929Z,8.51
2023-02-19T01:12:57.241Z,8.52
2023-02-19T01:15:23.559Z,8.59
2023-02-19T01:17:49.877Z,8.51
2023-02-19T01:20:16.354Z,8.51
2023-02-19T01:22:42.660Z,8.51
2023-02-19T01:25:08.954Z,8.53
2023-02-19T01:27:35.265Z,8.49
2023-02-19T01:30:01.703Z,8.58
2023-02-19T01:32:28.064Z,8.55
2023-02-19T01:34:54.374Z,8.53
2023-02-19T01:37:20.677Z,8.52
2023-02-19T01:39:47.570Z,8.59
2023-02-19T01:42:15.692Z,8.57
2023-02-19T01:44:44.986Z,8.60
2023-02-19T01:47:12.560Z,8.49
2023-02-19T01:49:47.098Z,8.51
2023-02-19T01:52:18.729Z,8.63
2023-02-19T01:54:46.559Z,8.74
2023-02-19T01:57:18.807Z,8.65
2023-02-19T01:59:47.829Z,8.64
2023-02-19T02:02:14.342Z,8.60
2023-02-19T02:04:40.677Z,8.57
2023-02-19T02:07:07.499Z,8.62
2023-02-19T02:09:33.791Z,8.56
2023-02-19T02:12:00.104Z,8.60
2023-02-19T02:14:30.048Z,8.56
2023-02-19T02:17:24.386Z,8.53
2023-02-19T02:20:32.086Z,8.66
2023-02-19T02:23:46.559Z,8.65
2023-02-19T02:26:34.188Z,8.59
2023-02-19T02:29:27.878Z,8.72
2023-02-19T02:31:58.883Z,8.72
2023-02-19T02:34:34.514Z,8.75
2023-02-19T02:37:03.416Z,8.73
2023-02-19T02:39:31.368Z,8.75
2023-02-19T02:41:59.922Z,8.72
2023-02-19T02:44:35.040Z,8.63
2023-02-19T02:47:03.753Z,8.74
2023-02-19T02:49:30.635Z,8.64
2023-02-19T02:51:58.214Z,8.79
2023-02-19T02:54:31.128Z,8.76
2023-02-19T02:56:59.340Z,8.71
2023-02-19T02:59:31.099Z,8.75
2023-02-19T03:02:02.928Z,8.75
2023-02-19T03:05:00.550Z,8.67
2023-02-19T03:07:31.720Z,8.71
2023-02-19T03:10:02.489Z,8.69
2023-02-19T03:12:30.647Z,8.72
2023-02-19T03:15:02.884Z,8.65
2023-02-19T03:17:32.597Z,8.74
2023-02-19T03:20:03.338Z,8.78
2023-02-19T03:22:33.588Z,8.76
2023-02-19T03:25:05.124Z,8.73
2023-02-19T03:27:34.449Z,8.66
2023-02-19T03:30:08.220Z,8.66
2023-02-19T03:32:59.711Z,8.61
2023-02-19T03:35:31.327Z,8.70
2023-02-19T03:38:08.731Z,8.82
2023-02-19T03:40:50.341Z,8.69
2023-02-19T03:43:40.814Z,8.64
2023-02-19T03:46:07.088Z,8.68
2023-02-19T03:48:35.828Z,8.70
2023-02-19T03:51:09.066Z,8.64
2023-02-19T03:53:52.108Z,8.51
2023-02-19T03:56:27.177Z,8.63
2023-02-19T03:59:02.730Z,8.85
2023-02-19T04:01:44.471Z,8.75
2023-02-19T04:04:21.761Z,8.53
2023-02-19T04:06:54.188Z,8.60
2023-02-19T04:09:23.159Z,8.66
2023-02-19T04:11:51.095Z,8.67
2023-02-19T04:14:35.493Z,8.81
2023-02-19T04:17:06.393Z,8.75
2023-02-19T04:19:37.411Z,8.80
2023-02-19T04:22:07.708Z,8.78
2023-02-19T04:24:41.485Z,8.75
2023-02-19T04:27:09.563Z,8.60
2023-02-19T04:29:37.752Z,8.72
2023-02-19T04:32:05.597Z,8.63
2023-02-19T04:34:31.932Z,8.74
2023-02-19T04:36:58.244Z,8.75
2023-02-19T04:39:24.613Z,8.60
2023-02-19T04:41:50.926Z,8.64
2023-02-19T04:44:17.250Z,8.65
2023-02-19T04:46:43.548Z,8.65
2023-02-19T04:49:10.113Z,8.63
2023-02-19T04:51:36.428Z,8.57
2023-02-19T04:54:02.746Z,8.60
2023-02-19T04:56:29.074Z,8.53
2023-02-19T04:58:55.621Z,8.66
2023-02-19T05:01:22.095Z,8.61
2023-02-19T05:03:48.399Z,8.51
2023-02-19T05:06:14.951Z,8.57
2023-02-19T05:08:41.744Z,8.54
2023-02-19T05:11:10.193Z,8.52
2023-02-19T05:13:37.049Z,8.53
2023-02-19T05:16:06.495Z,8.60
2023-02-19T05:18:33.459Z,8.62
2023-02-19T05:21:00.520Z,8.63
2023-02-19T05:23:28.199Z,8.56
2023-02-19T05:25:54.562Z,8.64
2023-02-19T05:28:21.191Z,8.60
2023-02-19T05:30:52.533Z,8.54
2023-02-19T05:33:20.596Z,8.50
2023-02-19T05:35:49.545Z,8.53
2023-02-19T05:38:17.255Z,8.57
2023-02-19T05:40:44.835Z,8.57
2023-02-19T05:43:12.691Z,8.46
2023-02-19T05:45:39.383Z,8.49
2023-02-19T05:48:07.022Z,8.40
2023-02-19T05:50:35.469Z,8.44
2023-02-19T05:53:03.138Z,8.42
2023-02-19T05:55:30.428Z,7.91
2023-02-19T05:57:56.738Z,7.00
2023-02-19T06:00:23.212Z,6.32
2023-02-19T06:02:49.648Z,6.19
2023-02-19T06:05:16.042Z,5.86
2023-02-19T06:07:42.341Z,5.62
2023-02-19T06:10:10.323Z,5.50
2023-02-19T06:12:37.378Z,5.28
2023-02-19T06:15:05.727Z,5.05
2023-02-19T06:17:33.462Z,5.06
2023-02-19T06:20:00.427Z,4.89
2023-02-19T06:22:27.696Z,4.97
2023-02-19T06:24:54.076Z,4.96
2023-02-19T06:27:20.383Z,5.01
2023-02-19T06:29:46.693Z,4.99
2023-02-19T06:32:13.063Z,4.98
2023-02-19T06:34:39.448Z,4.94
2023-02-19T06:37:05.741Z,4.84
2023-02-19T06:39:32.151Z,4.83
2023-02-19T06:41:58.728Z,4.70
2023-02-19T06:44:25.192Z,4.83
2023-02-19T06:46:55.183Z,4.48
2023-02-19T06:49:21.960Z,4.70
2023-02-19T06:51:48.350Z,4.71
2023-02-19T06:54:14.661Z,4.75
2023-02-19T06:56:41.788Z,4.75
2023-02-19T06:59:11.368Z,4.85
2023-02-19T07:01:39.314Z,4.70
2023-02-19T07:04:07.209Z,4.60
2023-02-19T07:06:35.188Z,4.59
2023-02-19T07:09:01.891Z,4.45
2023-02-19T07:11:33.297Z,4.30
2023-02-19T07:14:01.827Z,4.39
2023-02-19T07:16:28.620Z,4.44
2023-02-19T07:18:59.574Z,4.31
2023-02-19T07:21:27.160Z,4.28
2023-02-19T07:23:54.043Z,4.36
2023-02-19T07:26:21.594Z,4.42
2023-02-19T07:28:49.618Z,4.36
2023-02-19T07:31:17.788Z,4.39
2023-02-19T07:33:44.657Z,4.47
2023-02-19T07:36:11.994Z,4.48
2023-02-19T07:38:38.511Z,4.21
2023-02-19T07:41:06.529Z,4.29
2023-02-19T07:43:35.682Z,4.18
2023-02-19T07:46:13.212Z,4.10
2023-02-19T07:48:42.061Z,4.16
2023-02-19T07:51:14.882Z,3.95
2023-02-19T07:53:41.184Z,3.99
2023-02-19T07:56:08.707Z,3.97
2023-02-19T07:58:35.293Z,3.81
2023-02-19T08:01:14.437Z,3.93
2023-02-19T08:03:41.616Z,3.99
2023-02-19T08:06:08.575Z,3.98
2023-02-19T08:08:34.914Z,3.84
2023-02-19T08:11:02.683Z,4.06
2023-02-19T08:13:30.741Z,4.18
2023-02-19T08:16:19.951Z,4.18
2023-02-19T08:18:47.917Z,4.00
2023-02-19T08:21:14.785Z,3.74
2023-02-19T08:23:41.193Z,4.09
2023-02-19T08:26:07.638Z,3.79
2023-02-19T08:28:34.024Z,3.82
2023-02-19T08:31:02.895Z,3.88
2023-02-19T08:33:29.351Z,3.75
2023-02-19T08:35:56.075Z,4.06
2023-02-19T08:38:22.951Z,3.89
2023-02-19T08:40:49.259Z,4.00
2023-02-19T08:43:16.941Z,3.83
2023-02-19T08:45:45.071Z,3.80
2023-02-19T08:48:11.940Z,3.89
2023-02-19T08:50:38.811Z,3.88
2023-02-19T08:53:06.446Z,4.19
2023-02-19T08:55:33.723Z,4.43
2023-02-19T08:58:00.239Z,4.26
2023-02-19T09:00:26.552Z,4.26
2023-02-19T09:02:52.880Z,4.42
2023-02-19T09:05:19.289Z,4.48
2023-02-19T09:07:45.596Z,4.44
2023-02-19T09:10:13.573Z,3.99
2023-02-19T09:12:40.572Z,3.98
2023-02-19T09:15:07.529Z,4.37
2023-02-19T09:17:33.839Z,4.21
2023-02-19T09:20:00.174Z,4.36
2023-02-19T09:22:26.489Z,4.22
2023-02-19T09:24:52.849Z,4.28
2023-02-19T09:27:20.359Z,4.29
2023-02-19T09:29:46.875Z,4.24
2023-02-19T09:32:14.018Z,4.29
2023-02-19T09:34:40.696Z,4.41
2023-02-19T09:37:07.731Z,4.61
2023-02-19T09:39:34.686Z,4.65
2023-02-19T09:42:09.222Z,4.80
2023-02-19T09:44:38.993Z,4.75
2023-02-19T09:47:21.078Z,4.60
2023-02-19T09:49:49.434Z,4.78
2023-02-19T09:52:19.692Z,5.22
2023-02-19T09:54:47.464Z,5.35
2023-02-19T09:57:17.454Z,5.52
2023-02-19T10:00:06.745Z,5.07
2023-02-19T10:02:33.968Z,5.28
2023-02-19T10:05:00.389Z,5.33
2023-02-19T10:07:38.985Z,5.25
2023-02-19T10:10:14.369Z,5.38
2023-02-19T10:12:50.312Z,5.72
2023-02-19T10:15:22.359Z,5.89
2023-02-19T10:17:48.707Z,5.59
2023-02-19T10:20:17.507Z,5.30
2023-02-19T10:22:43.901Z,5.78
2023-02-19T10:25:14.748Z,5.56
2023-02-19T10:27:41.089Z,5.92
2023-02-19T10:30:18.223Z,5.50
2023-02-19T10:32:59.424Z,5.55
2023-02-19T10:35:26.310Z,5.47
2023-02-19T10:37:52.960Z,5.84
2023-02-19T10:40:22.574Z,5.76
2023-02-19T10:42:52.598Z,5.73
2023-02-19T10:45:23.069Z,6.24
2023-02-19T10:47:50.178Z,6.36
2023-02-19T10:50:26.044Z,6.20
2023-02-19T10:52:55.643Z,5.78
2023-02-19T10:55:37.789Z,6.21
2023-02-19T10:58:24.722Z,5.94
2023-02-19T11:01:10.947Z,6.24
2023-02-19T11:03:38.214Z,5.64
2023-02-19T11:06:07.592Z,5.53
2023-02-19T11:08:57.078Z,5.37
2023-02-19T11:11:35.766Z,6.12
2023-02-19T11:14:14.179Z,7.10
2023-02-19T11:16:44.528Z,7.45
2023-02-19T11:19:23.838Z,7.04
2023-02-19T11:21:50.451Z,7.73
2023-02-19T11:24:30.912Z,6.28
2023-02-19T11:26:58.395Z,7.22
2023-02-19T11:29:25.314Z,7.35
2023-02-19T11:31:51.743Z,7.16
2023-02-19T11:34:18.077Z,7.08
2023-02-19T11:36:44.387Z,7.06
2023-02-19T11:39:10.640Z,7.79
2023-02-19T11:41:55.418Z,7.44
2023-02-19T11:44:50.566Z,7.43
2023-02-19T11:47:39.655Z,7.67
2023-02-19T11:50:22.898Z,7.00
2023-02-19T11:53:03.482Z,6.50
2023-02-19T11:55:45.031Z,6.21
2023-02-19T11:58:36.208Z,6.06
2023-02-19T12:01:30.318Z,6.56
2023-02-19T12:04:35.293Z,6.78
2023-02-19T12:07:24.797Z,7.12
2023-02-19T12:10:13.082Z,7.50
2023-02-19T12:13:02.617Z,7.47
2023-02-19T12:15:58.455Z,7.76
2023-02-19T12:18:39.762Z,7.78
2023-02-19T12:21:21.312Z,7.36
2023-02-19T12:24:08.383Z,6.84
2023-02-19T12:26:40.721Z,6.76
2023-02-19T12:29:44.925Z,6.27
2023-02-19T12:32:39.626Z,6.36
2023-02-19T12:35:20.758Z,6.43
2023-02-19T12:38:18.306Z,6.18
2023-02-19T12:41:05.116Z,6.62
2023-02-19T12:43:33.671Z,7.01
2023-02-19T12:46:08.312Z,7.56
2023-02-19T12:48:43.803Z,7.73
2023-02-19T12:51:23.793Z,7.77
2023-02-19T12:54:01.356Z,7.39
2023-02-19T12:56:36.078Z,6.89
2023-02-19T12:59:13.725Z,7.25
2023-02-19T13:01:50.420Z,7.29
2023-02-19T13:04:22.590Z,7.18
2023-02-19T13:06:55.726Z,7.18
2023-02-19T13:09:33.884Z,6.93
2023-02-19T13:12:08.198Z,7.02
2023-02-19T13:14:39.936Z,6.88
2023-02-19T13:17:17.381Z,6.74
2023-02-19T13:19:48.586Z,6.79
2023-02-19T13:22:42.647Z,6.90
2023-02-19T13:25:09.859Z,7.07
2023-02-19T13:28:20.297Z,7.18
2023-02-19T13:31:05.345Z,7.32
2023-02-19T13:34:03.712Z,7.42
2023-02-19T13:36:31.084Z,7.76
2023-02-19T13:38:59.719Z,7.97
2023-02-19T13:41:40.216Z,8.20
2023-02-19T13:44:14.850Z,8.00
2023-02-19T13:46:46.190Z,7.97
2023-02-19T13:49:27.855Z,8.00
2023-02-19T13:51:59.167Z,7.99
2023-02-19T13:54:31.186Z,8.31
2023-02-19T13:57:17.725Z,8.15
2023-02-19T13:59:44.844Z,8.32
2023-02-19T14:02:21.682Z,8.45
2023-02-19T14:04:59.910Z,8.43
2023-02-19T14:07:48.212Z,8.31
2023-02-19T14:10:50.673Z,7.77
2023-02-19T14:13:51.260Z,7.47
2023-02-19T14:16:46.740Z,7.28
2023-02-19T14:19:42.209Z,7.34
2023-02-19T14:22:45.468Z,7.39
2023-02-19T14:25:29.153Z,7.19
2023-02-19T14:27:59.821Z,7.23
2023-02-19T14:30:27.620Z,7.20
2023-02-19T14:33:07.657Z,7.27
2023-02-19T14:35:40.895Z,7.34
2023-02-19T14:38:15.824Z,7.28
2023-02-19T14:40:42.208Z,7.22
2023-02-19T14:43:14.184Z,7.21
2023-02-19T14:45:54.847Z,7.10
2023-02-19T14:48:38.207Z,7.09
2023-02-19T14:51:10.322Z,7.15
2023-02-19T14:53:44.146Z,7.21
2023-02-19T14:56:22.762Z,7.31
2023-02-19T14:59:12.013Z,7.34
2023-02-19T15:01:38.695Z,7.39
2023-02-19T15:04:06.141Z,7.27
2023-02-19T15:06:35.107Z,7.11
2023-02-19T15:09:06.913Z,7.00
2023-02-19T15:11:35.026Z,6.82
2023-02-19T15:14:07.050Z,6.82
2023-02-19T15:16:35.873Z,6.88
2023-02-19T15:19:06.217Z,6.96
2023-02-19T15:21:34.582Z,6.88
2023-02-19T15:24:03.832Z,6.89
2023-02-19T15:26:38.875Z,6.95
2023-02-19T15:29:11.950Z,6.82
2023-02-19T15:31:45.820Z,6.74
2023-02-19T15:34:17.220Z,6.71
2023-02-19T15:36:43.859Z,6.71
2023-02-19T15:39:25.240Z,6.47
2023-02-19T15:41:55.218Z,6.60
2023-02-19T15:44:29.499Z,6.72
2023-02-19T15:46:58.811Z,6.74
2023-02-19T15:49:40.977Z,6.50
2023-02-19T15:52:11.793Z,6.39
2023-02-19T15:54:52.604Z,6.54
2023-02-19T15:57:25.645Z,6.67
2023-02-19T16:00:02.718Z,6.71
2023-02-19T16:02:29.360Z,6.61
2023-02-19T16:04:56.326Z,6.64
2023-02-19T16:07:27.908Z,6.68
2023-02-19T16:10:18.426Z,6.49
2023-02-19T16:12:54.772Z,6.47
2023-02-19T16:15:21.225Z,6.51
2023-02-19T16:17:47.785Z,6.51
2023-02-19T16:20:22.604Z,6.39
2023-02-19T16:22:49.682Z,6.26
2023-02-19T16:25:29.084Z,6.27
2023-02-19T16:27:55.969Z,6.34
2023-02-19T16:30:31.449Z,6.28
2023-02-19T16:33:20.153Z,6.08
2023-02-19T16:35:47.314Z,5.95
2023-02-19T16:38:15.332Z,5.86
2023-02-19T16:40:50.529Z,5.92
2023-02-19T16:43:37.506Z,5.98
2023-02-19T16:46:03.918Z,5.96
2023-02-19T16:48:30.341Z,6.05
2023-02-19T16:50:56.736Z,6.13
2023-02-19T16:53:24.482Z,6.33
2023-02-19T16:55:52.076Z,6.25
2023-02-19T16:58:18.431Z,6.02
2023-02-19T17:00:44.816Z,5.86
2023-02-19T17:03:15.212Z,5.82
2023-02-19T17:05:42.035Z,5.84
2023-02-19T17:08:29.726Z,5.79
2023-02-19T17:10:56.329Z,5.85
2023-02-19T17:13:22.668Z,5.72
2023-02-19T17:15:49.035Z,5.73
2023-02-19T17:18:15.634Z,5.84
2023-02-19T17:20:43.486Z,5.89
2023-02-19T17:23:09.779Z,5.78
2023-02-19T17:25:36.156Z,5.70
2023-02-19T17:28:02.484Z,5.74
2023-02-19T17:30:31.746Z,5.74
2023-02-19T17:32:58.141Z,5.70
2023-02-19T17:35:24.780Z,5.77
2023-02-19T17:37:53.393Z,5.68
2023-02-19T17:40:33.581Z,5.66
2023-02-19T17:43:00.590Z,5.54
2023-02-19T17:45:27.055Z,5.56
2023-02-19T17:47:53.407Z,5.69
2023-02-19T17:50:22.427Z,5.70
2023-02-19T17:52:48.814Z,5.64
2023-02-19T17:55:16.295Z,5.64
2023-02-19T17:57:42.586Z,5.66
2023-02-19T18:00:10.794Z,5.65
2023-02-19T18:02:37.129Z,5.66
2023-02-19T18:05:03.458Z,5.60
2023-02-19T18:07:29.790Z,5.64
2023-02-19T18:09:56.104Z,5.61
2023-02-19T18:12:22.421Z,5.49
2023-02-19T18:14:48.722Z,5.52
2023-02-19T18:17:15.044Z,5.58
2023-02-19T18:19:44.078Z,5.60
2023-02-19T18:22:10.663Z,5.74
2023-02-19T18:24:37.242Z,5.71
2023-02-19T18:27:03.572Z,5.60
2023-02-19T18:29:29.888Z,5.79
2023-02-19T18:31:56.498Z,5.85
2023-02-19T18:34:22.842Z,5.72
2023-02-19T18:36:49.533Z,5.59
2023-02-19T18:39:16.158Z,5.53
2023-02-19T18:41:46.686Z,5.67
2023-02-19T18:44:12.973Z,5.76
2023-02-19T18:46:39.288Z,5.68
2023-02-19T18:49:06.627Z,5.78
2023-02-19T18:51:32.935Z,5.81
2023-02-19T18:53:59.226Z,5.89
2023-02-19T18:56:25.521Z,5.83
2023-02-19T18:58:55.116Z,5.87
2023-02-19T19:01:21.808Z,5.91
2023-02-19T19:03:48.194Z,5.81
2023-02-19T19:06:18.066Z,5.78
2023-02-19T19:08:44.471Z,5.76
2023-02-19T19:11:11.251Z,5.70
2023-02-19T19:13:37.741Z,5.79
2023-02-19T19:16:04.340Z,5.73
2023-02-19T19:18:31.219Z,5.72
2023-02-19T19:20:58.010Z,5.79
2023-02-19T19:23:24.373Z,5.75
2023-02-19T19:25:50.672Z,5.68
2023-02-19T19:28:17.047Z,5.77
2023-02-19T19:30:43.490Z,5.68
2023-02-19T19:33:09.850Z,5.72
2023-02-19T19:35:36.244Z,5.80
2023-02-19T19:38:02.603Z,5.76
2023-02-19T19:40:28.914Z,5.74
2023-02-19T19:42:55.210Z,5.70
2023-02-19T19:45:21.789Z,5.71
2023-02-19T19:47:48.405Z,5.74
2023-02-19T19:50:16.497Z,5.77
2023-02-19T19:52:42.834Z,5.75
2023-02-19T19:55:09.620Z,5.69
2023-02-19T19:57:36.188Z,5.68
2023-02-19T20:00:02.922Z,5.77
2023-02-19T20:02:29.327Z,5.81
2023-02-19T20:04:55.705Z,5.72
2023-02-19T20:07:22.097Z,5.68
2023-02-19T20:09:49.653Z,5.75
2023-02-19T20:12:16.959Z,5.76
2023-02-19T20:14:44.475Z,5.77
2023-02-19T20:17:10.804Z,5.59
2023-02-19T20:19:37.237Z,5.62
2023-02-19T20:22:03.635Z,5.58
2023-02-19T20:24:30.673Z,5.65
2023-02-19T20:26:59.153Z,5.69
2023-02-19T20:29:26.620Z,5.68
2023-02-19T20:31:53.017Z,5.62
2023-02-19T20:34:19.372Z,5.63
2023-02-19T20:36:47.492Z,5.55
2023-02-19T20:39:15.838Z,5.64
2023-02-19T20:41:50.141Z,5.62
2023-02-19T20:44:17.302Z,5.65
2023-02-19T20:46:45.076Z,5.67
2023-02-19T20:49:12.681Z,5.66
2023-02-19T20:51:53.171Z,5.66
2023-02-19T20:54:22.231Z,5.73
2023-02-19T20:56:50.954Z,5.57
2023-02-19T20:59:18.292Z,5.56
2023-02-19T21:01:44.838Z,5.60
2023-02-19T21:04:12.119Z,5.58
2023-02-19T21:06:38.552Z,5.58
2023-02-19T21:09:05.349Z,5.61
2023-02-19T21:11:32.394Z,5.63
2023-02-19T21:13:58.728Z,5.66
2023-02-19T21:16:30.563Z,5.65
2023-02-19T21:18:57.402Z,5.66
2023-02-19T21:21:24.941Z,5.59
2023-02-19T21:23:52.467Z,5.81
2023-02-19T21:26:18.891Z,5.78
2023-02-19T21:28:45.256Z,5.78
2023-02-19T21:31:11.877Z,5.74
2023-02-19T21:33:38.252Z,5.70
2023-02-19T21:36:05.285Z,5.81
2023-02-19T21:38:32.725Z,5.84
2023-02-19T21:40:59.084Z,5.88
2023-02-19T21:43:25.391Z,5.86
2023-02-19T21:45:51.733Z,5.94
2023-02-19T21:48:18.069Z,5.91
2023-02-19T21:50:44.451Z,5.88
2023-02-19T21:53:11.171Z,5.89
2023-02-19T21:55:38.538Z,5.96
2023-02-19T21:58:04.921Z,6.01
2023-02-19T22:00:31.262Z,5.94
2023-02-19T22:02:57.663Z,5.93
2023-02-19T22:05:25.250Z,5.84
2023-02-19T22:07:51.610Z,5.87
2023-02-19T22:10:17.933Z,5.93
2023-02-19T22:12:44.244Z,5.82
2023-02-19T22:15:10.606Z,5.81
2023-02-19T22:17:36.896Z,5.70
2023-02-19T22:20:03.305Z,5.70
2023-02-19T22:22:29.618Z,5.75
2023-02-19T22:24:55.942Z,5.71
2023-02-19T22:27:22.277Z,5.72
2023-02-19T22:29:48.573Z,5.76
2023-02-19T22:32:15.140Z,5.71
2023-02-19T22:34:42.068Z,5.66
2023-02-19T22:37:09.275Z,5.57
2023-02-19T22:39:35.567Z,5.64
2023-02-19T22:42:01.985Z,5.67
2023-02-19T22:44:28.285Z,5.71
2023-02-19T22:46:55.995Z,5.74
2023-02-19T22:49:23.190Z,5.65
2023-02-19T22:51:53.456Z,5.70
2023-02-19T22:54:19.916Z,5.59
2023-02-19T22:56:46.237Z,5.65
2023-02-19T22:59:12.534Z,5.74
2023-02-19T23:01:38.870Z,5.71
2023-02-19T23:04:05.261Z,5.61
2023-02-19T23:06:34.370Z,5.64
2023-02-19T23:09:08.546Z,5.68
2023-02-19T23:11:38.286Z,5.72
2023-02-19T23:14:05.663Z,5.89
2023-02-19T23:16:32.262Z,5.75
2023-02-19T23:18:58.601Z,5.89
2023-02-19T23:21:24.897Z,5.80
2023-02-19T23:23:51.209Z,5.81
2023-02-19T23:26:17.719Z,5.73
2023-02-19T23:28:45.255Z,5.75
2023-02-19T23:31:12.077Z,5.70
2023-02-19T23:33:38.982Z,5.71
2023-02-19T23:36:05.925Z,5.75
2023-02-19T23:38:32.339Z,5.72
2023-02-19T23:40:59.124Z,5.58
2023-02-19T23:43:25.649Z,5.61
2023-02-19T23:45:51.981Z,5.61
2023-02-19T23:48:18.322Z,5.74
2023-02-19T23:50:44.830Z,5.73
2023-02-19T23:53:11.233Z,5.80
2023-02-19T23:55:37.550Z,5.67
2023-02-19T23:58:03.897Z,5.67
